Terminal Aerodrome Forecast
Issued by NWS

Home | Current Version | Previous Version | Text Only | Print | Product List | Glossary On
Versions: 1 2 3 4 5 6 7 8 9 10 11 12 13 14 15 16 17 18 19
000
FTUS43 KDVN 012200 AAB
TAFBRL
TAF AMD
KBRL 012248Z 0123/0218 02020G30KT 1SM -SN BR SCT009 OVC018
      TEMPO 0123/0201 1/2SM SN BLSN OVC004
     FM020100 01020G28KT 3SM -SHSN OVC012
     FM020400 36015G24KT 5SM BLSN BKN020
     FM020800 34011KT P6SM SCT020=

USA.gov is the U.S. government's official web portal to all federal, state and local government web resources and services.